Portada
METAR-TAF:

METAR-TAF

Aeroports :

Najran, Aràbia Saudita

latitud: 17-37N, longitud: 044-25E, altitud: 1212 m

Observació

L'informe es va fer fa 1 hora i 13 minuts, a les 06:00 UTC
Vent 4 kt del Est/Sud-Est
Temperatura 23°C
Humitat 25%
Pressió 1023 hPa
Visibilitat 10 km o més
sense núvols per sota de 1500 mi sense presència de cumulonimbus.

METAR: OENG 310600Z 12004KT CAVOK 23/02 Q1023 NOSIG

Hora: 10:13 (07:13 UTC)

Pronòstic

L'informe es va fer fa 8 hores i 13 minuts, a les 23:00 UTC
Pronòstic vàlid del 31 a les 00 UTC al 01 a les 06 UTC
Vent 3 kt amb direcció variable
Visibilitat 10 km o més
sense núvols per sota de 1500 mi sense presència de cumulonimbus.
Evolucionant progressivament
l' 31 a les 06 UTC al 31 a les 08 UTC
Vent 12 kt del Sud/Sud-Est

TAF: OENG 302300Z 3100/0106 VRB03KT CAVOK BECMG 3106/3108 16012KT

Observacions i pronòstics meteorològics de més de 4000 aeroports (METAR i TAF).

Les estacions disponibles són els punts grocs i vermells al mapa.

Posi el ratolí al punt desitjat per veure el nom de l'estació.

Feu clic per veure les observacions i els pronòstics meteorològics.

Per canviar el mapa: feu clic els botons verds amb una creu de color negre per apropar; al botó verd amb un guió per allunyar la imatge; o en les fletxes verdes per a mapes adjacents.


METAR-TAF: